createdAt,value
2019-02-08T00:56:53.055Z,99998.84
2019-02-08T00:59:21.726Z,99997.52
2019-02-08T01:01:51.967Z,99991.84
2019-02-08T01:04:20.650Z,99994.08
2019-02-08T01:06:49.280Z,99989.41
2019-02-08T01:09:17.919Z,99990.58
2019-02-08T01:11:47.066Z,99985.47
2019-02-08T01:14:15.695Z,99983.90
2019-02-08T01:16:44.365Z,99988.63
2019-02-08T01:19:13.040Z,99989.65
2019-02-08T01:21:41.729Z,99987.07
2019-02-08T01:24:10.364Z,99980.56
2019-02-08T01:26:38.930Z,99975.27
2019-02-08T01:29:07.575Z,99975.23
2019-02-08T01:31:36.244Z,99969.19
2019-02-08T01:34:11.132Z,99974.38
2019-02-08T01:36:42.543Z,99968.33
2019-02-08T01:39:11.084Z,99973.60
2019-02-08T01:41:39.728Z,99958.59
2019-02-08T01:44:08.362Z,99962.53
2019-02-08T01:46:36.991Z,99958.21
2019-02-08T01:49:05.658Z,99962.05
2019-02-08T01:51:37.252Z,99961.55
2019-02-08T01:54:05.909Z,99955.45
2019-02-08T01:56:34.535Z,99962.76
2019-02-08T01:59:03.212Z,99965.34
2019-02-08T02:01:31.837Z,99965.00
2019-02-08T02:04:00.506Z,99962.70
2019-02-08T02:06:29.142Z,99963.08
2019-02-08T02:08:57.759Z,99956.17
2019-02-08T02:11:26.388Z,99958.08
2019-02-08T02:13:55.022Z,99955.87
2019-02-08T02:16:23.698Z,99952.94
2019-02-08T02:18:52.398Z,99951.68
2019-02-08T02:21:20.954Z,99953.84
2019-02-08T02:23:56.003Z,99954.13
2019-02-08T02:26:19.977Z,99955.42
2019-02-08T02:28:48.640Z,99955.86
2019-02-08T02:31:17.258Z,99948.57
2019-02-08T02:33:45.958Z,99957.22
2019-02-08T02:36:14.604Z,99952.38
2019-02-08T02:38:43.236Z,99951.98
2019-02-08T02:41:11.941Z,99946.82
2019-02-08T02:43:40.618Z,99951.15
2019-02-08T02:46:09.242Z,99946.84
2019-02-08T02:48:37.932Z,99953.78
2019-02-08T02:51:06.613Z,99950.77
2019-02-08T02:53:35.232Z,99950.01
2019-02-08T02:56:03.849Z,99950.34
2019-02-08T02:58:32.477Z,99955.83
2019-02-08T03:01:01.213Z,99953.76
2019-02-08T03:03:29.854Z,99960.50
2019-02-08T03:05:58.481Z,99961.53
2019-02-08T03:08:27.156Z,99959.02
2019-02-08T03:10:55.786Z,99959.38
2019-02-08T03:13:24.475Z,99967.50
2019-02-08T03:15:53.096Z,99963.16
2019-02-08T03:18:21.767Z,99961.84
2019-02-08T03:20:50.390Z,99963.08
2019-02-08T03:23:19.025Z,99958.78
2019-02-08T03:25:47.666Z,99957.77
2019-02-08T03:28:16.302Z,99961.73
2019-02-08T03:30:49.858Z,99956.57
2019-02-08T03:33:18.555Z,99953.44
2019-02-08T03:35:47.247Z,99955.63
2019-02-08T03:38:15.904Z,99959.95
2019-02-08T03:40:44.526Z,99960.81
2019-02-08T03:43:13.159Z,99959.89
2019-02-08T03:45:43.491Z,99963.27
2019-02-08T03:48:12.561Z,99963.73
2019-02-08T03:50:41.365Z,99965.08
2019-02-08T03:53:10.299Z,99956.39
2019-02-08T03:55:39.047Z,99971.40
2019-02-08T03:58:08.722Z,99968.42
2019-02-08T04:00:42.245Z,99967.23
2019-02-08T04:03:10.908Z,99967.13
2019-02-08T04:05:39.627Z,99964.19
2019-02-08T04:08:09.099Z,99964.92
2019-02-08T04:10:37.724Z,99960.12
2019-02-08T04:13:06.467Z,99962.73
2019-02-08T04:15:35.080Z,99960.22
2019-02-08T04:18:03.839Z,99959.45
2019-02-08T04:20:32.457Z,99951.26
2019-02-08T04:23:01.140Z,99952.98
2019-02-08T04:25:29.767Z,99959.86
2019-02-08T04:27:58.407Z,99953.80
2019-02-08T04:30:34.361Z,99951.29
2019-02-08T04:33:03.509Z,99952.02
2019-02-08T04:35:32.148Z,99957.97
2019-02-08T04:38:00.798Z,99954.70
2019-02-08T04:40:29.498Z,99955.63
2019-02-08T04:42:58.243Z,99956.54
2019-02-08T04:45:26.897Z,99957.03
2019-02-08T04:47:55.685Z,99953.67
2019-02-08T04:50:26.766Z,99954.97
2019-02-08T04:52:55.897Z,99959.06
2019-02-08T04:55:24.548Z,99955.22
2019-02-08T04:57:53.181Z,99952.58
2019-02-08T05:00:33.643Z,99961.52
2019-02-08T05:03:02.297Z,99959.89
2019-02-08T05:05:30.989Z,99959.48
2019-02-08T05:07:59.614Z,99956.08
2019-02-08T05:10:30.955Z,99955.19
2019-02-08T05:12:59.747Z,99958.20
2019-02-08T05:15:28.465Z,99963.79
2019-02-08T05:17:57.200Z,99962.90
2019-02-08T05:20:31.913Z,99963.87
2019-02-08T05:23:00.837Z,99963.87
2019-02-08T05:25:29.533Z,99961.73
2019-02-08T05:27:58.209Z,99960.38
2019-02-08T05:30:29.046Z,99966.73
2019-02-08T05:32:57.609Z,99970.97
2019-02-08T05:35:26.694Z,99959.45
2019-02-08T05:37:55.418Z,99962.07
2019-02-08T05:40:24.249Z,99958.14
2019-02-08T05:42:53.042Z,99965.55
2019-02-08T05:45:24.868Z,99965.08
2019-02-08T05:47:53.534Z,99958.23
2019-02-08T05:50:25.313Z,99963.36
2019-02-08T05:52:54.223Z,99966.03
2019-02-08T05:55:44.458Z,99968.64
2019-02-08T05:58:34.556Z,99970.73
2019-02-08T06:01:39.607Z,99977.67
2019-02-08T06:04:27.979Z,99976.98
2019-02-08T06:07:35.775Z,99974.48
2019-02-08T06:10:23.555Z,99979.80
2019-02-08T06:13:28.079Z,99972.58
2019-02-08T06:16:18.966Z,99965.84
2019-02-08T06:19:25.261Z,99964.67
2019-02-08T06:21:54.019Z,99959.97
2019-02-08T06:24:25.585Z,99968.16
2019-02-08T06:26:54.255Z,99967.41
2019-02-08T06:29:23.124Z,99965.28
2019-02-08T06:31:51.827Z,99973.92
2019-02-08T06:34:20.682Z,99963.18
2019-02-08T06:36:50.544Z,99961.01
2019-02-08T06:39:19.312Z,99977.41
2019-02-08T06:41:48.083Z,99973.09
2019-02-08T06:44:19.545Z,99973.92
2019-02-08T06:46:48.316Z,99984.28
2019-02-08T06:49:17.037Z,99986.83
2019-02-08T06:51:48.575Z,99985.52
2019-02-08T06:54:17.407Z,99986.42
2019-02-08T06:56:57.929Z,99993.31
2019-02-08T06:59:28.216Z,100001.92
2019-02-08T07:02:08.483Z,99995.87
2019-02-08T07:04:41.822Z,99992.81
2019-02-08T07:07:15.288Z,100002.73
2019-02-08T07:09:45.735Z,100001.28
2019-02-08T07:12:31.108Z,99991.11
2019-02-08T07:15:09.731Z,99999.41
2019-02-08T07:17:50.336Z,99989.94
2019-02-08T07:20:20.909Z,99991.66
2019-02-08T07:23:04.470Z,99981.67
2019-02-08T07:25:36.973Z,99984.31
2019-02-08T07:28:09.970Z,99981.71
2019-02-08T07:30:42.047Z,99989.45
2019-02-08T07:33:21.776Z,99982.79
2019-02-08T07:35:55.412Z,99985.98
2019-02-08T07:38:29.677Z,99987.38
2019-02-08T07:41:17.793Z,99990.83
2019-02-08T07:43:51.120Z,99990.60
2019-02-08T07:46:22.227Z,99993.17
2019-02-08T07:49:01.301Z,99997.08
2019-02-08T07:51:32.070Z,99996.22
2019-02-08T07:54:03.226Z,99993.90
2019-02-08T07:56:50.060Z,99989.12
2019-02-08T07:59:23.074Z,99989.18
2019-02-08T08:01:53.268Z,99989.05
2019-02-08T08:04:26.566Z,99992.58
2019-02-08T08:06:58.028Z,99990.16
2019-02-08T08:09:46.591Z,99990.06
2019-02-08T08:12:30.712Z,99993.05
2019-02-08T08:15:06.430Z,99993.52
2019-02-08T08:17:36.697Z,99988.96
2019-02-08T08:20:12.603Z,99983.38
2019-02-08T08:22:44.820Z,99983.47
2019-02-08T08:25:16.576Z,99984.57
2019-02-08T08:27:58.951Z,99976.44
2019-02-08T08:30:40.774Z,99974.76
2019-02-08T08:33:16.663Z,99976.75
2019-02-08T08:36:03.363Z,99977.05
2019-02-08T08:38:46.581Z,99979.31
2019-02-08T08:41:43.712Z,99981.71
2019-02-08T08:44:31.845Z,99978.86
2019-02-08T08:47:21.866Z,99982.91
2019-02-08T08:50:10.076Z,99986.95
2019-02-08T08:53:04.595Z,99990.00
2019-02-08T08:55:48.061Z,99990.80
2019-02-08T08:58:22.271Z,99991.42
2019-02-08T09:00:56.960Z,99995.24
2019-02-08T09:03:40.631Z,99997.78
2019-02-08T09:06:24.461Z,99994.04
2019-02-08T09:08:59.087Z,99993.84
2019-02-08T09:11:45.531Z,99998.63
2019-02-08T09:14:50.588Z,100001.62
2019-02-08T09:17:44.762Z,100006.35
2019-02-08T09:20:27.590Z,100009.02
2019-02-08T09:23:16.705Z,100009.56
2019-02-08T09:26:07.828Z,100009.98
2019-02-08T09:28:56.299Z,100006.67
2019-02-08T09:31:55.059Z,100010.07
2019-02-08T09:34:42.978Z,100008.95
2019-02-08T09:37:41.827Z,100014.17
2019-02-08T09:40:32.873Z,100014.55
2019-02-08T09:43:07.294Z,100009.70
2019-02-08T09:46:03.157Z,100006.95
2019-02-08T09:48:56.785Z,100007.14
2019-02-08T09:51:47.214Z,100008.78
2019-02-08T09:54:39.936Z,100009.95
2019-02-08T09:57:23.558Z,100010.87
2019-02-08T10:00:03.902Z,100003.03
2019-02-08T10:03:02.234Z,99997.55
2019-02-08T10:05:50.118Z,99994.89
2019-02-08T10:08:40.630Z,99993.02
2019-02-08T10:11:12.216Z,99991.27
2019-02-08T10:13:52.571Z,99990.42
2019-02-08T10:16:49.313Z,99991.25
2019-02-08T10:19:32.721Z,99988.84
2019-02-08T10:22:23.522Z,99986.48
2019-02-08T10:25:20.718Z,99980.06
2019-02-08T10:28:01.354Z,99988.20
2019-02-08T10:30:48.184Z,99977.75
2019-02-08T10:33:40.918Z,99980.86
2019-02-08T10:36:21.525Z,99980.60
2019-02-08T10:39:13.954Z,99974.80
2019-02-08T10:41:54.603Z,99973.30
2019-02-08T10:44:34.322Z,99980.27
2019-02-08T10:47:39.156Z,99978.89
2019-02-08T10:50:37.816Z,99978.31
2019-02-08T10:53:09.505Z,99981.31
2019-02-08T10:56:15.210Z,99983.84
2019-02-08T10:59:09.657Z,99980.02
2019-02-08T11:02:02.154Z,99985.13
2019-02-08T11:04:45.703Z,99973.48
2019-02-08T11:07:37.398Z,99971.86
2019-02-08T11:10:45.142Z,99968.38
2019-02-08T11:16:36.999Z,99964.17
2019-02-08T11:19:20.244Z,99965.77
2019-02-08T11:21:50.124Z,99960.58
2019-02-08T11:24:21.654Z,99963.05
2019-02-08T11:26:50.474Z,99957.38
2019-02-08T11:29:19.363Z,99951.74
2019-02-08T11:31:48.176Z,99951.06
2019-02-08T11:34:16.858Z,99954.47
2019-02-08T11:36:48.344Z,99951.39
2019-02-08T11:39:18.425Z,99954.90
2019-02-08T11:41:47.697Z,99955.33
2019-02-08T11:44:16.757Z,99952.22
2019-02-08T11:46:45.604Z,99950.38
2019-02-08T11:49:14.403Z,99948.14
2019-02-08T11:51:43.326Z,99938.70
2019-02-08T11:54:12.254Z,99945.27
2019-02-08T11:56:41.142Z,99945.17
2019-02-08T11:59:09.759Z,99939.42
2019-02-08T12:01:42.453Z,99937.56
2019-02-08T12:04:11.409Z,99939.78
2019-02-08T12:06:40.159Z,99936.34
2019-02-08T12:09:11.303Z,99931.95
2019-02-08T12:11:40.033Z,99934.45
2019-02-08T12:14:09.255Z,99926.09
2019-02-08T12:16:41.035Z,99930.25
2019-02-08T12:19:09.806Z,99926.75
2019-02-08T12:21:38.645Z,99927.34
2019-02-08T12:24:07.432Z,99919.57
2019-02-08T12:26:37.869Z,99925.28
2019-02-08T12:29:08.635Z,99919.47
2019-02-08T12:31:37.375Z,99920.92
2019-02-08T12:34:06.141Z,99919.84
2019-02-08T12:36:36.376Z,99920.80
2019-02-08T12:39:07.994Z,99917.61
2019-02-08T12:41:36.813Z,99923.94
2019-02-08T12:44:05.643Z,99928.20
2019-02-08T12:46:34.239Z,99923.03
2019-02-08T12:49:02.825Z,99923.16
2019-02-08T12:51:34.713Z,99922.78
2019-02-08T12:54:03.465Z,99918.83
2019-02-08T12:56:32.165Z,99920.38
2019-02-08T12:59:03.545Z,99920.03
2019-02-08T13:01:37.586Z,99916.31
2019-02-08T13:04:03.449Z,99914.46
2019-02-08T13:06:32.282Z,99907.55
2019-02-08T13:09:00.894Z,99915.06
2019-02-08T13:11:29.557Z,99914.65
2019-02-08T13:13:58.192Z,99915.87
2019-02-08T13:16:26.833Z,99918.86
2019-02-08T13:18:55.484Z,99914.67
2019-02-08T13:21:24.149Z,99916.81
2019-02-08T13:23:53.810Z,99911.71
2019-02-08T13:26:22.842Z,99914.10
2019-02-08T13:28:54.660Z,99916.62
2019-02-08T13:31:23.381Z,99915.17
2019-02-08T13:33:52.331Z,99917.87
2019-02-08T13:36:20.965Z,99915.52
2019-02-08T13:38:49.613Z,99914.77
2019-02-08T13:41:21.164Z,99911.05
2019-02-08T13:43:50.009Z,99915.75
2019-02-08T13:46:18.754Z,99912.95
2019-02-08T13:48:47.484Z,99919.66
2019-02-08T13:51:16.754Z,99916.57
2019-02-08T13:53:49.126Z,99918.77
2019-02-08T13:56:17.797Z,99910.21
2019-02-08T13:58:46.573Z,99910.05
2019-02-08T14:01:15.487Z,99909.84
2019-02-08T14:03:44.287Z,99910.73
2019-02-08T14:06:13.258Z,99908.34
2019-02-08T14:08:41.923Z,99908.89
2019-02-08T14:11:10.526Z,99908.44
2019-02-08T14:13:40.794Z,99905.30
2019-02-08T14:16:12.282Z,99904.67
2019-02-08T14:18:40.979Z,99908.16
2019-02-08T14:21:09.683Z,99908.00
2019-02-08T14:23:38.284Z,99901.91
2019-02-08T14:26:06.961Z,99908.23
2019-02-08T14:28:35.951Z,99900.23
2019-02-08T14:31:04.565Z,99903.21
2019-02-08T14:33:33.684Z,99906.69
2019-02-08T14:36:05.350Z,99910.73
2019-02-08T14:38:35.593Z,99907.69
2019-02-08T14:41:04.348Z,99906.66
2019-02-08T14:43:33.047Z,99908.73
2019-02-08T14:46:01.615Z,99907.20
2019-02-08T14:48:30.284Z,99907.05
2019-02-08T14:50:58.986Z,99906.83
2019-02-08T14:53:27.874Z,99910.09
2019-02-08T14:55:56.494Z,99907.20
2019-02-08T14:58:25.168Z,99915.82
2019-02-08T15:00:53.838Z,99915.91
2019-02-08T15:03:25.496Z,99912.83
2019-02-08T15:05:54.312Z,99917.09
2019-02-08T15:08:22.948Z,99921.46
2019-02-08T15:10:52.575Z,99913.19
2019-02-08T15:13:22.047Z,99924.06
2019-02-08T15:15:51.079Z,99923.09
2019-02-08T15:18:19.714Z,99927.31
2019-02-08T15:20:48.333Z,99916.32
2019-02-08T15:23:17.111Z,99915.25
2019-02-08T15:25:45.739Z,99921.84
2019-02-08T15:28:14.383Z,99928.48
2019-02-08T15:30:46.031Z,99918.81
2019-02-08T15:33:14.747Z,99921.90
2019-02-08T15:35:43.870Z,99929.78
2019-02-08T15:38:12.492Z,99925.49
2019-02-08T15:40:54.040Z,99927.59
2019-02-08T15:43:23.208Z,99926.78
2019-02-08T15:45:58.014Z,99922.84
2019-02-08T15:48:29.674Z,99925.45
2019-02-08T15:50:58.397Z,99930.27
2019-02-08T15:53:27.026Z,99926.88
2019-02-08T15:56:07.484Z,99932.05
2019-02-08T15:58:36.755Z,99927.67
2019-02-08T16:01:08.824Z,99936.81
2019-02-08T16:03:37.617Z,99939.42
2019-02-08T16:06:06.461Z,99940.31
2019-02-08T16:08:35.566Z,99946.33
2019-02-08T16:11:04.744Z,99935.56
2019-02-08T16:13:33.376Z,99942.02
2019-02-08T16:16:04.926Z,99951.52
2019-02-08T16:18:33.565Z,99951.94
2019-02-08T16:21:02.243Z,99952.83
2019-02-08T16:23:30.931Z,99955.83
2019-02-08T16:25:59.589Z,99956.70
2019-02-08T16:28:28.814Z,99961.03
2019-02-08T16:30:57.547Z,99963.61
2019-02-08T16:33:26.108Z,99966.19
2019-02-08T16:35:54.720Z,99964.06
2019-02-08T16:38:32.246Z,99962.73
2019-02-08T16:41:01.400Z,99965.32
2019-02-08T16:43:33.100Z,99970.94
2019-02-08T16:46:05.023Z,99970.95
2019-02-08T16:48:35.026Z,99974.81
2019-02-08T16:51:03.828Z,99973.95
2019-02-08T16:53:32.463Z,99980.42
2019-02-08T16:56:01.096Z,99983.44
2019-02-08T16:58:33.251Z,99976.98
2019-02-08T17:01:08.977Z,99983.03
2019-02-08T17:03:37.640Z,99983.48
2019-02-08T17:06:06.420Z,99990.36
2019-02-08T17:08:35.015Z,99992.09
2019-02-08T17:11:07.947Z,99992.95
2019-02-08T17:13:36.573Z,99988.64
2019-02-08T17:16:05.681Z,99990.37
2019-02-08T17:18:39.012Z,99991.65
2019-02-08T17:21:07.838Z,99988.66
2019-02-08T17:23:36.409Z,99996.00
2019-02-08T17:26:09.107Z,99986.06
2019-02-08T17:28:37.743Z,99988.22
2019-02-08T17:31:06.376Z,99986.08
2019-02-08T17:33:38.536Z,99996.00
2019-02-08T17:36:07.185Z,99994.24
2019-02-08T17:38:35.964Z,100004.61
2019-02-08T17:41:06.210Z,99996.84
2019-02-08T17:43:34.855Z,100001.56
2019-02-08T17:46:06.554Z,99999.37
2019-02-08T17:48:36.623Z,99999.00
2019-02-08T17:51:05.366Z,100001.56
2019-02-08T17:53:36.643Z,100006.34
2019-02-08T17:56:08.191Z,100007.20
2019-02-08T17:58:36.747Z,100002.86
2019-02-08T18:01:05.927Z,100012.80
2019-02-08T18:03:34.532Z,100011.51
2019-02-08T18:06:03.218Z,100008.48
2019-02-08T18:08:31.782Z,100015.78
2019-02-08T18:11:03.442Z,100011.08
2019-02-08T18:13:32.191Z,100011.52
2019-02-08T18:16:03.942Z,100021.42
2019-02-08T18:18:32.814Z,100015.36
2019-02-08T18:21:02.079Z,100021.86
2019-02-08T18:23:30.723Z,100016.27
2019-02-08T18:25:59.412Z,100022.30
2019-02-08T18:28:28.043Z,100020.16
2019-02-08T18:30:56.683Z,100023.19
2019-02-08T18:33:25.954Z,100026.17
2019-02-08T18:35:58.927Z,100027.03
2019-02-08T18:38:27.618Z,100023.18
2019-02-08T18:41:01.734Z,100024.47
2019-02-08T18:43:40.268Z,100025.74
2019-02-08T18:46:09.565Z,100026.20
2019-02-08T18:48:38.280Z,100034.80
2019-02-08T18:51:07.036Z,100035.67
2019-02-08T18:53:37.142Z,100040.42
2019-02-08T18:56:06.504Z,100037.38
2019-02-08T18:58:38.089Z,100041.27
2019-02-08T19:01:09.914Z,100036.50
2019-02-08T19:03:38.542Z,100040.79
2019-02-08T19:06:13.151Z,100039.93
2019-02-08T19:08:41.786Z,100045.12
2019-02-08T19:11:13.544Z,100045.54
2019-02-08T19:13:42.179Z,100050.72
2019-02-08T19:16:13.594Z,100051.98
2019-02-08T19:18:42.423Z,100052.02
2019-02-08T19:21:11.241Z,100054.59
2019-02-08T19:23:40.001Z,100058.08
2019-02-08T19:26:08.668Z,100055.95
2019-02-08T19:28:37.329Z,100060.27
2019-02-08T19:31:05.960Z,100067.18
2019-02-08T19:33:37.305Z,100065.02
2019-02-08T19:36:09.247Z,100066.77
2019-02-08T19:38:37.948Z,100065.90
2019-02-08T19:41:06.580Z,100076.27
2019-02-08T19:43:35.326Z,100073.25
2019-02-08T19:46:04.108Z,100081.42
2019-02-08T19:48:32.749Z,100074.95
2019-02-08T19:51:01.375Z,100075.79
2019-02-08T19:53:30.033Z,100072.34
2019-02-08T19:56:01.750Z,100072.34
2019-02-08T19:58:34.649Z,100073.64
2019-02-08T20:01:00.991Z,100080.12
2019-02-08T20:03:29.630Z,100080.95
2019-02-08T20:05:58.310Z,100075.79
2019-02-08T20:08:30.001Z,100079.64
2019-02-08T20:11:01.512Z,100074.09
2019-02-08T20:13:30.009Z,100078.40
2019-02-08T20:15:58.725Z,100078.82
2019-02-08T20:18:30.033Z,100082.72
2019-02-08T20:20:59.504Z,100083.20
2019-02-08T20:23:28.153Z,100077.58
2019-02-08T20:25:56.967Z,100085.78
2019-02-08T20:28:25.548Z,100079.30
2019-02-08T20:30:54.307Z,100085.34
2019-02-08T20:33:22.862Z,100090.09
2019-02-08T20:35:57.035Z,100091.37
2019-02-08T20:38:25.672Z,100094.86
2019-02-08T20:40:54.322Z,100097.84
2019-02-08T20:43:23.138Z,100093.09
2019-02-08T20:45:52.595Z,100093.53
2019-02-08T20:48:22.331Z,100093.07
2019-02-08T20:50:51.088Z,100094.77
2019-02-08T20:53:19.857Z,100090.03
2019-02-08T20:55:48.579Z,100093.48
2019-02-08T20:58:19.996Z,100093.91
2019-02-08T21:00:51.695Z,100101.24
2019-02-08T21:03:21.047Z,100100.38
2019-02-08T21:05:50.727Z,100099.53
2019-02-08T21:08:20.032Z,100100.38
2019-02-08T21:10:48.869Z,100100.39
2019-02-08T21:13:17.786Z,100097.38
2019-02-08T21:15:52.730Z,100096.98
2019-02-08T21:18:21.344Z,100103.81
2019-02-08T21:20:49.989Z,100098.16
2019-02-08T21:23:18.663Z,100099.42
2019-02-08T21:25:51.815Z,100102.50
2019-02-08T21:28:17.640Z,100096.89
2019-02-08T21:30:46.861Z,100102.94
2019-02-08T21:33:15.504Z,100104.23
2019-02-08T21:35:44.247Z,100108.09
2019-02-08T21:38:16.017Z,100102.48
2019-02-08T21:40:44.856Z,100101.66
2019-02-08T21:43:16.207Z,100102.89
2019-02-08T21:45:45.436Z,100097.77
2019-02-08T21:48:17.406Z,100099.44
2019-02-08T21:50:46.085Z,100095.06
2019-02-08T21:53:14.747Z,100096.41
2019-02-08T21:55:43.380Z,100098.15
2019-02-08T21:58:12.041Z,100100.72
2019-02-08T22:00:42.861Z,100100.34
2019-02-08T22:03:11.496Z,100102.51
2019-02-08T22:05:49.042Z,100099.03
2019-02-08T22:08:17.678Z,100100.77
2019-02-08T22:10:46.358Z,100098.61
2019-02-08T22:13:15.034Z,100101.19
2019-02-08T22:15:45.085Z,100102.48
2019-02-08T22:18:13.742Z,100102.95
2019-02-08T22:20:42.412Z,100099.45
2019-02-08T22:23:11.071Z,100102.51
2019-02-08T22:25:39.695Z,100106.34
2019-02-08T22:28:08.472Z,100105.98
2019-02-08T22:30:37.120Z,100108.55
2019-02-08T22:33:11.150Z,100108.11
2019-02-08T22:35:40.065Z,100108.57
2019-02-08T22:38:09.244Z,100108.11
2019-02-08T22:40:37.972Z,100105.02
2019-02-08T22:43:06.931Z,100108.48
2019-02-08T22:45:44.856Z,100111.94
2019-02-08T22:48:13.508Z,100110.64
2019-02-08T22:50:42.145Z,100106.34
2019-02-08T22:53:10.805Z,100111.95
2019-02-08T22:55:39.401Z,100103.31
2019-02-08T22:58:09.047Z,100099.45
2019-02-08T23:00:42.297Z,100101.13
2019-02-08T23:03:17.491Z,100103.77
2019-02-08T23:05:46.322Z,100105.41
2019-02-08T23:08:14.843Z,100097.22
2019-02-08T23:10:43.583Z,100101.55
2019-02-08T23:13:12.928Z,100106.73
2019-02-08T23:15:44.559Z,100105.45
2019-02-08T23:18:13.289Z,100102.01
2019-02-08T23:20:41.894Z,100099.84
2019-02-08T23:23:10.619Z,100101.59
2019-02-08T23:25:39.293Z,100104.11
2019-02-08T23:28:08.026Z,100102.78
2019-02-08T23:30:36.766Z,100103.14
2019-02-08T23:33:06.016Z,100102.27
2019-02-08T23:35:41.832Z,100100.63
2019-02-08T23:38:05.104Z,100096.77
2019-02-08T23:40:33.768Z,100101.00
2019-02-08T23:43:02.464Z,100097.95
2019-02-08T23:45:31.101Z,100104.52
2019-02-08T23:47:59.789Z,100110.83
2019-02-08T23:50:28.425Z,100112.47
2019-02-08T23:52:57.050Z,100100.88
2019-02-08T23:55:26.793Z,100103.42
2019-02-08T23:57:55.416Z,100108.07
